Lexington, KY (40511)

6:36 AM EST on November 28, 2014 (GMT -0500)
Sayre School | Change Station
CLOSE
Current Station
Personal Weather Station
Location: Lexington, KY
Elevation: 971 ft
Nearby Weather Stations

Elev 971 ft 38.05 °N, 84.49 °W | Updated 1 minute ago

Overcast
Overcast
26.1 °F
Feels Like 26 °F
N
2.0
Wind Variable Wind from North
Gusts 3.0 mph

Today
High -- | Low -- °F
--% Chance of Precip.
Yesterday
High -- | Low -- °F
Precip. -- in
7:32 AM 5:19 PM
Waxing Crescent, 39% visible
Pressure 30.45 in
Visibility 10.0 miles
Clouds Overcast 3300 ft
Windchill 26 °F
Dew Point 20 °F
Humidity 79%
Rainfall 0.00 in
Snow Depth Not available.
UV 0.0 out of 12
Pollen .10 out of 12
Air Quality Not available.
Flu Activity Not available.
METAR KLEX 281054Z AUTO 25006KT 10SM OVC033 M04/M06 A3042 RMK AO2 SLP310 T10391061 $

More Conditions Fewer Conditions

Pressure 30.45 in
Visibility 10.0 miles
Clouds Overcast 3300 ft
Windchill 26 °F
Dew Point 20 °F
Humidity 79%
Rainfall 0.00 in
Snow Depth Not available.
UV 0.0 out of 12
Pollen .10 out of 12
Air Quality Not available.
Flu Activity Not available.
METAR KLEX 281054Z AUTO 25006KT 10SM OVC033 M04/M06 A3042 RMK AO2 SLP310 T10391061 $

More Conditions Fewer Conditions

10-Day Weather Forecast

Almanac

Astronomy

Nov. 28, 2014 Rise Set
Actual Time
Civil Twilight
Nautical Twilight
Astronomical Twilight
Moon
Length of Visible Light
Length of Day
Tomorrow will be .
, % of the Moon is Illuminated

Today's Extremes

State Highs State Lows

Community

WunderPhotos

Upload Photos

1,774,192 photos uploaded!

WunderBlogs® & News

Nearby

Air Quality

  Air Quality AQ Index Pollutant
Not available.

Snow Depth

Station Depth Elevation

Earthquake Activity

City Distance Mag. Time & Date
Minimum magnitude displayed is 2.5.

Coastal Water Temperatures

Place Temperature

Nearby Weather Stations